sensor_id;sensor_type;location;lat;lon;timestamp;P1;durP1;ratioP1;P2;durP2;ratioP2
48199;SDS011;33990;44.602;10.976;2023-07-13T00:02:06;6.95;;;4.95;;
48199;SDS011;33990;44.602;10.976;2023-07-13T00:04:34;5.68;;;4.97;;
48199;SDS011;33990;44.602;10.976;2023-07-13T00:07:01;6.28;;;5.25;;
48199;SDS011;33990;44.602;10.976;2023-07-13T00:09:29;7.30;;;4.80;;
48199;SDS011;33990;44.602;10.976;2023-07-13T00:11:57;8.32;;;5.30;;
48199;SDS011;33990;44.602;10.976;2023-07-13T00:14:25;6.68;;;5.40;;
48199;SDS011;33990;44.602;10.976;2023-07-13T00:16:55;5.75;;;4.70;;
48199;SDS011;33990;44.602;10.976;2023-07-13T00:19:23;6.93;;;5.10;;
48199;SDS011;33990;44.602;10.976;2023-07-13T00:21:50;8.63;;;5.50;;
48199;SDS011;33990;44.602;10.976;2023-07-13T00:24:18;6.50;;;4.55;;
48199;SDS011;33990;44.602;10.976;2023-07-13T00:26:51;6.65;;;4.53;;
48199;SDS011;33990;44.602;10.976;2023-07-13T00:29:19;7.72;;;5.35;;
48199;SDS011;33990;44.602;10.976;2023-07-13T00:31:48;6.40;;;5.40;;
48199;SDS011;33990;44.602;10.976;2023-07-13T00:34:16;7.05;;;5.13;;
48199;SDS011;33990;44.602;10.976;2023-07-13T00:36:43;6.65;;;5.18;;
48199;SDS011;33990;44.602;10.976;2023-07-13T00:39:11;7.03;;;4.85;;
48199;SDS011;33990;44.602;10.976;2023-07-13T00:41:39;6.00;;;5.15;;
48199;SDS011;33990;44.602;10.976;2023-07-13T00:44:09;7.07;;;5.13;;
48199;SDS011;33990;44.602;10.976;2023-07-13T00:46:42;7.78;;;5.55;;
48199;SDS011;33990;44.602;10.976;2023-07-13T00:49:10;6.43;;;4.75;;
48199;SDS011;33990;44.602;10.976;2023-07-13T00:51:46;8.68;;;5.15;;
48199;SDS011;33990;44.602;10.976;2023-07-13T00:54:20;5.53;;;5.03;;
48199;SDS011;33990;44.602;10.976;2023-07-13T00:56:53;5.82;;;4.93;;
48199;SDS011;33990;44.602;10.976;2023-07-13T00:59:24;5.97;;;5.10;;
48199;SDS011;33990;44.602;10.976;2023-07-13T01:01:53;7.10;;;4.65;;
48199;SDS011;33990;44.602;10.976;2023-07-13T01:04:23;6.90;;;5.20;;
48199;SDS011;33990;44.602;10.976;2023-07-13T01:06:52;8.65;;;4.80;;
48199;SDS011;33990;44.602;10.976;2023-07-13T01:09:20;7.35;;;5.03;;
48199;SDS011;33990;44.602;10.976;2023-07-13T01:11:48;5.63;;;4.80;;
48199;SDS011;33990;44.602;10.976;2023-07-13T01:14:16;6.50;;;5.05;;
48199;SDS011;33990;44.602;10.976;2023-07-13T01:16:44;5.47;;;4.72;;
48199;SDS011;33990;44.602;10.976;2023-07-13T01:19:21;7.43;;;5.57;;
48199;SDS011;33990;44.602;10.976;2023-07-13T01:21:52;7.82;;;5.38;;
48199;SDS011;33990;44.602;10.976;2023-07-13T01:24:20;6.68;;;5.05;;
48199;SDS011;33990;44.602;10.976;2023-07-13T01:26:49;7.10;;;5.57;;
48199;SDS011;33990;44.602;10.976;2023-07-13T01:29:16;6.57;;;4.75;;
48199;SDS011;33990;44.602;10.976;2023-07-13T01:31:43;7.35;;;5.85;;
48199;SDS011;33990;44.602;10.976;2023-07-13T01:34:12;8.48;;;5.90;;
48199;SDS011;33990;44.602;10.976;2023-07-13T01:36:40;7.82;;;5.28;;
48199;SDS011;33990;44.602;10.976;2023-07-13T01:39:07;6.97;;;5.15;;
48199;SDS011;33990;44.602;10.976;2023-07-13T01:41:35;6.95;;;5.47;;
48199;SDS011;33990;44.602;10.976;2023-07-13T01:44:02;6.47;;;5.20;;
48199;SDS011;33990;44.602;10.976;2023-07-13T01:46:30;7.03;;;5.28;;
48199;SDS011;33990;44.602;10.976;2023-07-13T01:48:58;5.68;;;5.00;;
48199;SDS011;33990;44.602;10.976;2023-07-13T01:51:25;5.85;;;4.93;;
48199;SDS011;33990;44.602;10.976;2023-07-13T01:53:53;6.93;;;4.78;;
48199;SDS011;33990;44.602;10.976;2023-07-13T01:56:20;6.78;;;4.50;;
48199;SDS011;33990;44.602;10.976;2023-07-13T01:58:48;6.43;;;4.70;;
48199;SDS011;33990;44.602;10.976;2023-07-13T02:01:15;6.30;;;5.47;;
48199;SDS011;33990;44.602;10.976;2023-07-13T02:03:43;6.22;;;5.13;;
48199;SDS011;33990;44.602;10.976;2023-07-13T02:06:10;5.97;;;4.57;;
48199;SDS011;33990;44.602;10.976;2023-07-13T02:08:39;6.35;;;5.32;;
48199;SDS011;33990;44.602;10.976;2023-07-13T02:11:08;5.95;;;4.82;;
48199;SDS011;33990;44.602;10.976;2023-07-13T02:13:35;7.95;;;5.63;;
48199;SDS011;33990;44.602;10.976;2023-07-13T02:16:03;6.95;;;4.85;;
48199;SDS011;33990;44.602;10.976;2023-07-13T02:18:31;6.05;;;5.00;;
48199;SDS011;33990;44.602;10.976;2023-07-13T02:20:58;8.68;;;4.90;;
48199;SDS011;33990;44.602;10.976;2023-07-13T02:23:26;5.85;;;4.25;;
48199;SDS011;33990;44.602;10.976;2023-07-13T02:25:57;6.38;;;5.28;;
48199;SDS011;33990;44.602;10.976;2023-07-13T02:28:25;6.13;;;4.83;;
48199;SDS011;33990;44.602;10.976;2023-07-13T02:30:52;5.43;;;3.97;;
48199;SDS011;33990;44.602;10.976;2023-07-13T02:33:19;7.85;;;4.63;;
48199;SDS011;33990;44.602;10.976;2023-07-13T02:35:48;5.72;;;4.07;;
48199;SDS011;33990;44.602;10.976;2023-07-13T02:38:15;5.13;;;4.20;;
48199;SDS011;33990;44.602;10.976;2023-07-13T02:40:42;5.22;;;4.43;;
48199;SDS011;33990;44.602;10.976;2023-07-13T02:43:11;6.15;;;4.40;;
48199;SDS011;33990;44.602;10.976;2023-07-13T02:45:43;5.78;;;4.68;;
48199;SDS011;33990;44.602;10.976;2023-07-13T02:48:13;4.97;;;4.43;;
48199;SDS011;33990;44.602;10.976;2023-07-13T02:50:41;6.43;;;4.40;;
48199;SDS011;33990;44.602;10.976;2023-07-13T02:53:09;6.70;;;4.53;;
48199;SDS011;33990;44.602;10.976;2023-07-13T02:55:36;5.63;;;4.32;;
48199;SDS011;33990;44.602;10.976;2023-07-13T02:58:03;5.93;;;4.28;;
48199;SDS011;33990;44.602;10.976;2023-07-13T03:00:31;4.80;;;3.67;;
48199;SDS011;33990;44.602;10.976;2023-07-13T03:02:58;6.53;;;4.30;;
48199;SDS011;33990;44.602;10.976;2023-07-13T03:05:27;5.07;;;4.30;;
48199;SDS011;33990;44.602;10.976;2023-07-13T03:07:56;5.68;;;4.05;;
48199;SDS011;33990;44.602;10.976;2023-07-13T03:10:25;4.78;;;4.10;;
48199;SDS011;33990;44.602;10.976;2023-07-13T03:12:53;5.38;;;3.65;;
48199;SDS011;33990;44.602;10.976;2023-07-13T03:15:24;5.32;;;3.72;;
48199;SDS011;33990;44.602;10.976;2023-07-13T03:17:54;5.72;;;4.03;;
48199;SDS011;33990;44.602;10.976;2023-07-13T03:20:21;5.38;;;4.28;;
48199;SDS011;33990;44.602;10.976;2023-07-13T03:22:48;4.05;;;3.50;;
48199;SDS011;33990;44.602;10.976;2023-07-13T03:25:17;5.03;;;4.03;;
48199;SDS011;33990;44.602;10.976;2023-07-13T03:27:44;7.72;;;4.55;;
48199;SDS011;33990;44.602;10.976;2023-07-13T03:30:12;5.35;;;3.58;;
48199;SDS011;33990;44.602;10.976;2023-07-13T03:32:41;6.80;;;4.22;;
48199;SDS011;33990;44.602;10.976;2023-07-13T03:35:09;7.88;;;4.32;;
48199;SDS011;33990;44.602;10.976;2023-07-13T03:37:37;5.32;;;4.03;;
48199;SDS011;33990;44.602;10.976;2023-07-13T03:40:13;5.32;;;3.55;;
48199;SDS011;33990;44.602;10.976;2023-07-13T03:42:43;5.57;;;3.78;;
48199;SDS011;33990;44.602;10.976;2023-07-13T03:45:14;4.75;;;3.58;;
48199;SDS011;33990;44.602;10.976;2023-07-13T03:47:41;4.97;;;3.60;;
48199;SDS011;33990;44.602;10.976;2023-07-13T03:50:09;8.48;;;4.38;;
48199;SDS011;33990;44.602;10.976;2023-07-13T03:52:37;5.60;;;3.60;;
48199;SDS011;33990;44.602;10.976;2023-07-13T03:55:04;6.90;;;4.00;;
48199;SDS011;33990;44.602;10.976;2023-07-13T03:57:34;6.63;;;3.75;;
48199;SDS011;33990;44.602;10.976;2023-07-13T04:00:05;4.60;;;3.63;;
48199;SDS011;33990;44.602;10.976;2023-07-13T04:02:41;3.97;;;3.42;;
48199;SDS011;33990;44.602;10.976;2023-07-13T04:05:09;6.57;;;4.68;;
48199;SDS011;33990;44.602;10.976;2023-07-13T04:07:36;6.72;;;4.03;;
48199;SDS011;33990;44.602;10.976;2023-07-13T04:10:04;6.75;;;4.07;;
48199;SDS011;33990;44.602;10.976;2023-07-13T04:12:31;6.95;;;4.07;;
48199;SDS011;33990;44.602;10.976;2023-07-13T04:14:59;6.10;;;4.00;;
48199;SDS011;33990;44.602;10.976;2023-07-13T04:17:26;6.00;;;3.90;;
48199;SDS011;33990;44.602;10.976;2023-07-13T04:19:54;4.53;;;3.50;;
48199;SDS011;33990;44.602;10.976;2023-07-13T04:22:21;5.82;;;3.90;;
48199;SDS011;33990;44.602;10.976;2023-07-13T04:24:48;8.13;;;3.70;;
48199;SDS011;33990;44.602;10.976;2023-07-13T04:27:16;4.93;;;3.65;;
48199;SDS011;33990;44.602;10.976;2023-07-13T04:29:43;5.03;;;3.20;;
48199;SDS011;33990;44.602;10.976;2023-07-13T04:32:11;5.35;;;3.92;;
48199;SDS011;33990;44.602;10.976;2023-07-13T04:34:38;5.93;;;3.88;;
48199;SDS011;33990;44.602;10.976;2023-07-13T04:37:05;4.20;;;3.47;;
48199;SDS011;33990;44.602;10.976;2023-07-13T04:39:34;4.63;;;3.90;;
48199;SDS011;33990;44.602;10.976;2023-07-13T04:42:02;5.78;;;3.60;;
48199;SDS011;33990;44.602;10.976;2023-07-13T04:44:30;4.75;;;3.90;;
48199;SDS011;33990;44.602;10.976;2023-07-13T04:46:57;5.35;;;3.78;;
48199;SDS011;33990;44.602;10.976;2023-07-13T04:49:25;6.32;;;4.60;;
48199;SDS011;33990;44.602;10.976;2023-07-13T04:51:52;5.00;;;3.50;;
48199;SDS011;33990;44.602;10.976;2023-07-13T04:54:19;5.97;;;4.13;;
48199;SDS011;33990;44.602;10.976;2023-07-13T04:56:47;6.50;;;4.15;;
48199;SDS011;33990;44.602;10.976;2023-07-13T04:59:14;6.32;;;4.00;;
48199;SDS011;33990;44.602;10.976;2023-07-13T05:01:41;5.07;;;3.60;;
48199;SDS011;33990;44.602;10.976;2023-07-13T05:04:09;6.75;;;4.07;;
48199;SDS011;33990;44.602;10.976;2023-07-13T05:06:36;6.55;;;3.92;;
48199;SDS011;33990;44.602;10.976;2023-07-13T05:09:03;7.82;;;3.95;;
48199;SDS011;33990;44.602;10.976;2023-07-13T05:11:31;5.25;;;3.50;;
48199;SDS011;33990;44.602;10.976;2023-07-13T05:13:58;6.15;;;3.72;;
48199;SDS011;33990;44.602;10.976;2023-07-13T05:16:25;9.77;;;3.90;;
48199;SDS011;33990;44.602;10.976;2023-07-13T05:18:53;6.15;;;3.80;;
48199;SDS011;33990;44.602;10.976;2023-07-13T05:21:21;5.35;;;3.50;;
48199;SDS011;33990;44.602;10.976;2023-07-13T05:23:48;7.05;;;3.45;;
48199;SDS011;33990;44.602;10.976;2023-07-13T05:26:15;5.55;;;3.50;;
48199;SDS011;33990;44.602;10.976;2023-07-13T05:28:44;6.78;;;3.80;;
48199;SDS011;33990;44.602;10.976;2023-07-13T05:31:11;4.13;;;3.13;;
48199;SDS011;33990;44.602;10.976;2023-07-13T05:33:39;7.57;;;3.60;;
48199;SDS011;33990;44.602;10.976;2023-07-13T05:36:07;4.82;;;3.30;;
48199;SDS011;33990;44.602;10.976;2023-07-13T05:38:34;4.60;;;3.00;;
48199;SDS011;33990;44.602;10.976;2023-07-13T05:41:02;5.20;;;3.17;;
48199;SDS011;33990;44.602;10.976;2023-07-13T05:43:32;6.75;;;3.28;;
48199;SDS011;33990;44.602;10.976;2023-07-13T05:46:00;4.63;;;2.63;;
48199;SDS011;33990;44.602;10.976;2023-07-13T05:48:27;4.32;;;2.75;;
48199;SDS011;33990;44.602;10.976;2023-07-13T05:50:55;5.45;;;2.55;;
48199;SDS011;33990;44.602;10.976;2023-07-13T05:53:22;8.27;;;2.70;;
48199;SDS011;33990;44.602;10.976;2023-07-13T05:55:49;5.05;;;3.55;;
48199;SDS011;33990;44.602;10.976;2023-07-13T05:58:17;3.45;;;1.95;;
48199;SDS011;33990;44.602;10.976;2023-07-13T06:00:45;3.63;;;2.05;;
48199;SDS011;33990;44.602;10.976;2023-07-13T06:03:15;5.88;;;2.40;;
48199;SDS011;33990;44.602;10.976;2023-07-13T06:05:43;8.40;;;2.13;;
48199;SDS011;33990;44.602;10.976;2023-07-13T06:08:10;4.68;;;2.33;;
48199;SDS011;33990;44.602;10.976;2023-07-13T06:10:38;4.70;;;2.75;;
48199;SDS011;33990;44.602;10.976;2023-07-13T06:13:05;3.88;;;1.90;;
48199;SDS011;33990;44.602;10.976;2023-07-13T06:15:32;3.58;;;2.08;;
48199;SDS011;33990;44.602;10.976;2023-07-13T06:18:00;3.50;;;1.80;;
48199;SDS011;33990;44.602;10.976;2023-07-13T06:20:28;4.78;;;1.92;;
48199;SDS011;33990;44.602;10.976;2023-07-13T06:22:56;2.55;;;1.60;;
48199;SDS011;33990;44.602;10.976;2023-07-13T06:25:25;4.55;;;1.88;;
48199;SDS011;33990;44.602;10.976;2023-07-13T06:27:53;4.88;;;1.92;;
48199;SDS011;33990;44.602;10.976;2023-07-13T06:30:20;8.85;;;2.33;;
48199;SDS011;33990;44.602;10.976;2023-07-13T06:32:49;2.90;;;1.85;;
48199;SDS011;33990;44.602;10.976;2023-07-13T06:35:17;4.68;;;2.15;;
48199;SDS011;33990;44.602;10.976;2023-07-13T06:37:44;7.20;;;2.20;;
48199;SDS011;33990;44.602;10.976;2023-07-13T06:40:11;3.78;;;1.80;;
48199;SDS011;33990;44.602;10.976;2023-07-13T06:42:39;3.17;;;1.60;;
48199;SDS011;33990;44.602;10.976;2023-07-13T06:45:06;3.85;;;1.35;;
48199;SDS011;33990;44.602;10.976;2023-07-13T06:47:34;5.38;;;1.98;;
48199;SDS011;33990;44.602;10.976;2023-07-13T06:50:02;3.80;;;1.50;;
48199;SDS011;33990;44.602;10.976;2023-07-13T06:52:30;6.97;;;1.58;;
48199;SDS011;33990;44.602;10.976;2023-07-13T06:54:57;5.03;;;1.58;;
48199;SDS011;33990;44.602;10.976;2023-07-13T06:57:24;3.00;;;1.30;;
48199;SDS011;33990;44.602;10.976;2023-07-13T06:59:52;6.40;;;1.50;;
48199;SDS011;33990;44.602;10.976;2023-07-13T07:02:19;4.10;;;1.27;;
48199;SDS011;33990;44.602;10.976;2023-07-13T07:04:46;2.40;;;1.38;;
48199;SDS011;33990;44.602;10.976;2023-07-13T07:07:14;3.55;;;1.38;;
48199;SDS011;33990;44.602;10.976;2023-07-13T07:09:41;4.13;;;1.60;;
48199;SDS011;33990;44.602;10.976;2023-07-13T07:12:08;4.05;;;1.25;;
48199;SDS011;33990;44.602;10.976;2023-07-13T07:14:36;3.25;;;1.75;;
48199;SDS011;33990;44.602;10.976;2023-07-13T07:17:04;4.82;;;1.42;;
48199;SDS011;33990;44.602;10.976;2023-07-13T07:19:31;4.80;;;1.70;;
48199;SDS011;33990;44.602;10.976;2023-07-13T07:21:59;3.97;;;1.75;;
48199;SDS011;33990;44.602;10.976;2023-07-13T07:24:26;3.15;;;1.50;;
48199;SDS011;33990;44.602;10.976;2023-07-13T07:26:54;4.40;;;2.00;;
48199;SDS011;33990;44.602;10.976;2023-07-13T07:29:24;5.80;;;1.98;;
48199;SDS011;33990;44.602;10.976;2023-07-13T07:31:56;3.55;;;2.10;;
48199;SDS011;33990;44.602;10.976;2023-07-13T07:34:26;4.95;;;2.17;;
48199;SDS011;33990;44.602;10.976;2023-07-13T07:36:53;3.47;;;1.85;;
48199;SDS011;33990;44.602;10.976;2023-07-13T07:39:23;4.10;;;1.77;;
48199;SDS011;33990;44.602;10.976;2023-07-13T07:41:51;2.65;;;1.85;;
48199;SDS011;33990;44.602;10.976;2023-07-13T07:44:21;4.93;;;1.75;;
48199;SDS011;33990;44.602;10.976;2023-07-13T07:46:49;4.32;;;1.60;;
48199;SDS011;33990;44.602;10.976;2023-07-13T07:49:16;2.78;;;1.70;;
48199;SDS011;33990;44.602;10.976;2023-07-13T07:51:43;4.47;;;1.95;;
48199;SDS011;33990;44.602;10.976;2023-07-13T07:54:11;5.88;;;2.65;;
48199;SDS011;33990;44.602;10.976;2023-07-13T07:56:45;4.07;;;2.17;;
48199;SDS011;33990;44.602;10.976;2023-07-13T07:59:32;6.53;;;2.30;;
48199;SDS011;33990;44.602;10.976;2023-07-13T08:02:03;3.92;;;1.90;;
48199;SDS011;33990;44.602;10.976;2023-07-13T08:04:33;3.35;;;1.92;;
48199;SDS011;33990;44.602;10.976;2023-07-13T08:07:03;5.72;;;2.42;;
48199;SDS011;33990;44.602;10.976;2023-07-13T08:09:31;4.05;;;2.17;;
48199;SDS011;33990;44.602;10.976;2023-07-13T08:11:58;3.90;;;1.73;;
48199;SDS011;33990;44.602;10.976;2023-07-13T08:14:29;3.38;;;2.05;;
48199;SDS011;33990;44.602;10.976;2023-07-13T08:17:16;4.85;;;2.15;;
48199;SDS011;33990;44.602;10.976;2023-07-13T08:19:43;5.38;;;2.50;;
48199;SDS011;33990;44.602;10.976;2023-07-13T08:22:11;5.60;;;2.58;;
48199;SDS011;33990;44.602;10.976;2023-07-13T08:24:38;4.18;;;2.30;;
48199;SDS011;33990;44.602;10.976;2023-07-13T08:27:05;4.20;;;2.60;;
48199;SDS011;33990;44.602;10.976;2023-07-13T08:29:33;5.60;;;3.00;;
48199;SDS011;33990;44.602;10.976;2023-07-13T08:32:01;5.07;;;2.28;;
48199;SDS011;33990;44.602;10.976;2023-07-13T08:34:28;4.63;;;2.53;;
48199;SDS011;33990;44.602;10.976;2023-07-13T08:36:55;4.18;;;2.72;;
48199;SDS011;33990;44.602;10.976;2023-07-13T08:39:23;7.57;;;2.80;;
48199;SDS011;33990;44.602;10.976;2023-07-13T08:41:52;4.90;;;2.63;;
48199;SDS011;33990;44.602;10.976;2023-07-13T08:44:30;3.88;;;2.40;;
48199;SDS011;33990;44.602;10.976;2023-07-13T08:47:14;7.95;;;3.42;;
48199;SDS011;33990;44.602;10.976;2023-07-13T08:49:43;6.70;;;3.08;;
48199;SDS011;33990;44.602;10.976;2023-07-13T08:52:17;5.05;;;2.50;;
48199;SDS011;33990;44.602;10.976;2023-07-13T08:54:56;6.97;;;3.35;;
48199;SDS011;33990;44.602;10.976;2023-07-13T08:57:33;6.95;;;3.42;;
48199;SDS011;33990;44.602;10.976;2023-07-13T09:00:01;8.15;;;2.75;;
48199;SDS011;33990;44.602;10.976;2023-07-13T09:05:28;4.43;;;3.17;;
48199;SDS011;33990;44.602;10.976;2023-07-13T09:10:52;5.72;;;3.00;;
48199;SDS011;33990;44.602;10.976;2023-07-13T09:13:30;9.00;;;3.97;;
48199;SDS011;33990;44.602;10.976;2023-07-13T09:16:00;8.48;;;3.78;;
48199;SDS011;33990;44.602;10.976;2023-07-13T09:19:05;6.20;;;3.90;;
48199;SDS011;33990;44.602;10.976;2023-07-13T09:27:15;8.38;;;3.83;;
48199;SDS011;33990;44.602;10.976;2023-07-13T09:33:00;6.25;;;3.75;;
48199;SDS011;33990;44.602;10.976;2023-07-13T09:35:29;8.70;;;4.00;;
48199;SDS011;33990;44.602;10.976;2023-07-13T09:37:57;5.88;;;4.20;;
48199;SDS011;33990;44.602;10.976;2023-07-13T09:40:56;6.07;;;4.03;;
48199;SDS011;33990;44.602;10.976;2023-07-13T09:43:27;8.98;;;4.53;;
48199;SDS011;33990;44.602;10.976;2023-07-13T09:45:55;12.43;;;4.22;;
48199;SDS011;33990;44.602;10.976;2023-07-13T09:48:23;11.75;;;4.68;;
48199;SDS011;33990;44.602;10.976;2023-07-13T09:50:54;5.68;;;3.42;;
48199;SDS011;33990;44.602;10.976;2023-07-13T09:53:23;8.67;;;3.57;;
48199;SDS011;33990;44.602;10.976;2023-07-13T09:55:50;6.75;;;2.88;;
48199;SDS011;33990;44.602;10.976;2023-07-13T09:58:20;7.50;;;2.90;;
48199;SDS011;33990;44.602;10.976;2023-07-13T10:01:00;8.93;;;3.63;;
48199;SDS011;33990;44.602;10.976;2023-07-13T10:03:36;5.57;;;3.25;;
48199;SDS011;33990;44.602;10.976;2023-07-13T10:06:13;5.85;;;2.90;;
48199;SDS011;33990;44.602;10.976;2023-07-13T10:08:44;5.82;;;2.90;;
48199;SDS011;33990;44.602;10.976;2023-07-13T10:11:17;7.00;;;3.00;;
48199;SDS011;33990;44.602;10.976;2023-07-13T10:16:20;3.72;;;2.28;;
48199;SDS011;33990;44.602;10.976;2023-07-13T10:18:51;6.07;;;2.80;;
48199;SDS011;33990;44.602;10.976;2023-07-13T10:21:23;6.50;;;2.53;;
48199;SDS011;33990;44.602;10.976;2023-07-13T10:24:04;6.13;;;2.97;;
48199;SDS011;33990;44.602;10.976;2023-07-13T10:26:43;5.10;;;2.90;;
48199;SDS011;33990;44.602;10.976;2023-07-13T10:29:15;4.57;;;2.75;;
48199;SDS011;33990;44.602;10.976;2023-07-13T10:31:44;7.05;;;3.10;;
48199;SDS011;33990;44.602;10.976;2023-07-13T10:34:12;4.35;;;2.70;;
48199;SDS011;33990;44.602;10.976;2023-07-13T10:36:44;9.32;;;2.83;;
48199;SDS011;33990;44.602;10.976;2023-07-13T10:39:24;4.05;;;2.92;;
48199;SDS011;33990;44.602;10.976;2023-07-13T10:41:57;5.50;;;3.20;;
48199;SDS011;33990;44.602;10.976;2023-07-13T10:44:30;5.13;;;2.83;;
48199;SDS011;33990;44.602;10.976;2023-07-13T10:46:59;5.88;;;2.78;;
48199;SDS011;33990;44.602;10.976;2023-07-13T10:49:30;5.38;;;2.67;;
48199;SDS011;33990;44.602;10.976;2023-07-13T10:51:59;5.78;;;3.30;;
48199;SDS011;33990;44.602;10.976;2023-07-13T10:57:14;5.60;;;2.80;;
48199;SDS011;33990;44.602;10.976;2023-07-13T10:59:48;11.07;;;3.85;;
48199;SDS011;33990;44.602;10.976;2023-07-13T11:02:35;7.57;;;4.07;;
48199;SDS011;33990;44.602;10.976;2023-07-13T11:10:51;8.75;;;4.32;;
48199;SDS011;33990;44.602;10.976;2023-07-13T11:18:53;5.85;;;3.28;;
48199;SDS011;33990;44.602;10.976;2023-07-13T11:22:03;4.45;;;2.95;;
48199;SDS011;33990;44.602;10.976;2023-07-13T11:24:49;6.00;;;2.97;;
48199;SDS011;33990;44.602;10.976;2023-07-13T11:27:28;5.50;;;3.00;;
48199;SDS011;33990;44.602;10.976;2023-07-13T11:33:10;5.82;;;4.00;;
48199;SDS011;33990;44.602;10.976;2023-07-13T11:38:20;7.03;;;3.83;;
48199;SDS011;33990;44.602;10.976;2023-07-13T11:40:51;6.85;;;3.78;;
48199;SDS011;33990;44.602;10.976;2023-07-13T11:43:22;5.77;;;4.40;;
48199;SDS011;33990;44.602;10.976;2023-07-13T11:45:50;6.47;;;4.40;;
48199;SDS011;33990;44.602;10.976;2023-07-13T11:48:22;6.78;;;5.10;;
48199;SDS011;33990;44.602;10.976;2023-07-13T11:50:51;10.07;;;6.13;;
48199;SDS011;33990;44.602;10.976;2023-07-13T11:53:22;6.72;;;5.25;;
48199;SDS011;33990;44.602;10.976;2023-07-13T11:55:53;8.60;;;6.35;;
48199;SDS011;33990;44.602;10.976;2023-07-13T11:58:21;7.10;;;4.82;;
48199;SDS011;33990;44.602;10.976;2023-07-13T12:00:51;8.27;;;4.72;;
48199;SDS011;33990;44.602;10.976;2023-07-13T12:03:22;7.22;;;5.35;;
48199;SDS011;33990;44.602;10.976;2023-07-13T12:06:19;7.43;;;6.00;;
48199;SDS011;33990;44.602;10.976;2023-07-13T12:09:11;10.13;;;6.28;;
48199;SDS011;33990;44.602;10.976;2023-07-13T12:11:41;6.38;;;5.45;;
48199;SDS011;33990;44.602;10.976;2023-07-13T12:14:15;10.20;;;6.70;;
48199;SDS011;33990;44.602;10.976;2023-07-13T12:16:44;9.05;;;6.32;;
48199;SDS011;33990;44.602;10.976;2023-07-13T12:19:17;8.68;;;6.32;;
48199;SDS011;33990;44.602;10.976;2023-07-13T12:21:50;11.13;;;7.30;;
48199;SDS011;33990;44.602;10.976;2023-07-13T12:24:20;10.07;;;7.63;;
48199;SDS011;33990;44.602;10.976;2023-07-13T12:26:53;10.60;;;7.95;;
48199;SDS011;33990;44.602;10.976;2023-07-13T12:29:26;9.27;;;7.60;;
48199;SDS011;33990;44.602;10.976;2023-07-13T12:31:54;10.05;;;7.20;;
48199;SDS011;33990;44.602;10.976;2023-07-13T12:34:24;7.85;;;6.95;;
48199;SDS011;33990;44.602;10.976;2023-07-13T12:39:39;11.10;;;7.38;;
48199;SDS011;33990;44.602;10.976;2023-07-13T12:42:28;7.85;;;6.63;;
48199;SDS011;33990;44.602;10.976;2023-07-13T12:47:50;7.15;;;6.07;;
48199;SDS011;33990;44.602;10.976;2023-07-13T12:50:23;9.35;;;6.30;;
48199;SDS011;33990;44.602;10.976;2023-07-13T12:52:59;8.68;;;5.93;;
48199;SDS011;33990;44.602;10.976;2023-07-13T12:58:41;7.05;;;6.03;;
48199;SDS011;33990;44.602;10.976;2023-07-13T13:01:10;9.52;;;6.63;;
48199;SDS011;33990;44.602;10.976;2023-07-13T13:03:45;8.52;;;6.60;;
48199;SDS011;33990;44.602;10.976;2023-07-13T13:08:42;10.00;;;6.80;;
48199;SDS011;33990;44.602;10.976;2023-07-13T13:11:10;10.55;;;5.88;;
48199;SDS011;33990;44.602;10.976;2023-07-13T13:13:38;10.45;;;6.82;;
48199;SDS011;33990;44.602;10.976;2023-07-13T13:18:49;15.93;;;8.25;;
48199;SDS011;33990;44.602;10.976;2023-07-13T13:21:17;12.30;;;8.32;;
48199;SDS011;33990;44.602;10.976;2023-07-13T13:23:45;9.93;;;7.30;;
48199;SDS011;33990;44.602;10.976;2023-07-13T13:26:13;11.70;;;6.32;;
48199;SDS011;33990;44.602;10.976;2023-07-13T13:28:45;9.38;;;6.30;;
48199;SDS011;33990;44.602;10.976;2023-07-13T13:31:14;7.18;;;5.45;;
48199;SDS011;33990;44.602;10.976;2023-07-13T13:33:44;8.52;;;6.47;;
48199;SDS011;33990;44.602;10.976;2023-07-13T13:36:16;11.05;;;7.90;;
48199;SDS011;33990;44.602;10.976;2023-07-13T13:38:47;10.63;;;9.05;;
48199;SDS011;33990;44.602;10.976;2023-07-13T13:41:15;8.07;;;7.22;;
48199;SDS011;33990;44.602;10.976;2023-07-13T13:43:43;9.23;;;6.32;;
48199;SDS011;33990;44.602;10.976;2023-07-13T13:48:41;12.93;;;6.55;;
48199;SDS011;33990;44.602;10.976;2023-07-13T13:51:12;10.88;;;7.57;;
48199;SDS011;33990;44.602;10.976;2023-07-13T13:53:42;14.82;;;8.30;;
48199;SDS011;33990;44.602;10.976;2023-07-13T13:56:11;9.55;;;7.25;;
48199;SDS011;33990;44.602;10.976;2023-07-13T13:58:40;9.18;;;5.95;;
48199;SDS011;33990;44.602;10.976;2023-07-13T14:01:12;11.10;;;8.15;;
48199;SDS011;33990;44.602;10.976;2023-07-13T14:03:47;7.55;;;6.22;;
48199;SDS011;33990;44.602;10.976;2023-07-13T14:06:24;8.60;;;5.85;;
48199;SDS011;33990;44.602;10.976;2023-07-13T14:08:51;7.85;;;5.90;;
48199;SDS011;33990;44.602;10.976;2023-07-13T14:11:19;6.88;;;6.18;;
48199;SDS011;33990;44.602;10.976;2023-07-13T14:13:53;7.68;;;5.72;;
48199;SDS011;33990;44.602;10.976;2023-07-13T14:16:25;6.65;;;5.95;;
48199;SDS011;33990;44.602;10.976;2023-07-13T14:18:56;8.00;;;5.70;;
48199;SDS011;33990;44.602;10.976;2023-07-13T14:21:27;8.18;;;6.53;;
48199;SDS011;33990;44.602;10.976;2023-07-13T14:23:56;9.27;;;5.68;;
48199;SDS011;33990;44.602;10.976;2023-07-13T14:26:24;6.88;;;5.55;;
48199;SDS011;33990;44.602;10.976;2023-07-13T14:28:54;7.32;;;5.80;;
48199;SDS011;33990;44.602;10.976;2023-07-13T14:31:23;7.85;;;6.20;;
48199;SDS011;33990;44.602;10.976;2023-07-13T14:33:56;7.18;;;5.82;;
48199;SDS011;33990;44.602;10.976;2023-07-13T14:38:57;6.57;;;5.82;;
48199;SDS011;33990;44.602;10.976;2023-07-13T14:41:27;8.80;;;6.10;;
48199;SDS011;33990;44.602;10.976;2023-07-13T14:43:54;6.70;;;5.80;;
48199;SDS011;33990;44.602;10.976;2023-07-13T14:46:29;8.02;;;6.15;;
48199;SDS011;33990;44.602;10.976;2023-07-13T14:49:04;8.43;;;5.78;;
48199;SDS011;33990;44.602;10.976;2023-07-13T14:51:40;11.07;;;6.00;;
48199;SDS011;33990;44.602;10.976;2023-07-13T14:54:08;7.75;;;6.10;;
48199;SDS011;33990;44.602;10.976;2023-07-13T14:56:37;5.47;;;4.97;;
48199;SDS011;33990;44.602;10.976;2023-07-13T14:59:04;7.82;;;5.90;;
48199;SDS011;33990;44.602;10.976;2023-07-13T15:01:32;8.20;;;5.35;;
48199;SDS011;33990;44.602;10.976;2023-07-13T15:03:59;6.35;;;5.78;;
48199;SDS011;33990;44.602;10.976;2023-07-13T15:06:27;6.95;;;5.88;;
48199;SDS011;33990;44.602;10.976;2023-07-13T15:08:55;6.90;;;5.78;;
48199;SDS011;33990;44.602;10.976;2023-07-13T15:11:23;7.30;;;5.93;;
48199;SDS011;33990;44.602;10.976;2023-07-13T15:13:51;7.45;;;5.55;;
48199;SDS011;33990;44.602;10.976;2023-07-13T15:16:22;6.13;;;5.45;;
48199;SDS011;33990;44.602;10.976;2023-07-13T15:18:51;6.43;;;5.78;;
48199;SDS011;33990;44.602;10.976;2023-07-13T15:21:20;6.97;;;6.28;;
48199;SDS011;33990;44.602;10.976;2023-07-13T15:23:51;7.22;;;5.68;;
48199;SDS011;33990;44.602;10.976;2023-07-13T15:26:18;7.05;;;5.72;;
48199;SDS011;33990;44.602;10.976;2023-07-13T15:28:46;8.25;;;6.25;;
48199;SDS011;33990;44.602;10.976;2023-07-13T15:31:24;7.00;;;6.05;;
48199;SDS011;33990;44.602;10.976;2023-07-13T15:33:55;7.03;;;5.57;;
48199;SDS011;33990;44.602;10.976;2023-07-13T15:36:24;7.07;;;6.32;;
48199;SDS011;33990;44.602;10.976;2023-07-13T15:38:55;7.30;;;6.03;;
48199;SDS011;33990;44.602;10.976;2023-07-13T15:41:24;6.65;;;5.90;;
48199;SDS011;33990;44.602;10.976;2023-07-13T15:43:55;6.95;;;5.88;;
48199;SDS011;33990;44.602;10.976;2023-07-13T15:46:27;6.45;;;5.72;;